aviador You're here:

KLLJ Decoded Metar

CHALLIS in ID, USA
Report Time2018-05-25 08:55:00
UTC Time2018-05-25 09:04:00
Flight Rules vfr VFR
Wind140° at 03 kt
W.Decomp.*RWY 16: 2.4 kt HW 1.8 kt LCW
W.Rank140° ranks 26
Current wind is below 140° avg. (4.9)
Visibility9999 m
Phenomena:N/A
Clouds:N/A
Expected CloudBase > 1,200 ft AGL from Temp-Dew spread
CeilingNone
Temp11°C (ISA +6)
Dew Point08°C (82% RH)
AAT9.5°C
QNH1020 hPa
Density Alt5,673 ft
Elevation5,039 ft
Report Wrong Elevation
Raw Report
METAR KLLJ 250855Z AUTO 14003KT 10SM CLR 11/08 A3011 RMK AO2 SLP149
T01060083 58004=

Extra information for KLLJ:More info

Metar Taf Metar & Taf Last 4 Metars F.Rules Stats Wind Profile Meteogram Temp Stats Airport Information Weather charts Add Link Nearby VenuesMetar ALERT Operation Metar Decoded Social comments

AIRNAV info for KLLJ